Time;durP1;ratioP1;P1;durP2;ratioP2;P2;SDS_P1;SDS_P2;PMS_P1;PMS_P2;Temp;Humidity;BMP_temperature;BMP_pressure;BME280_temperature;BME280_humidity;BME280_pressure;Samples;Min_cycle;Max_cycle;Signal;HPM_P1;HPM_P2
2024/03/31 00:01:51;;;;;;;33.40;5.00;;;;;;;18.03;45.62;97947.31;238948;180;137404;-60
2024/03/31 00:06:54;;;;;;;32.30;5.50;;;;;;;17.87;46.29;97953.83;239072;177;136814;-60
2024/03/31 00:11:57;;;;;;;30.20;5.10;;;;;;;17.73;46.52;97949.65;238941;180;152140;-60
2024/03/31 00:17:00;;;;;;;25.50;5.00;;;;;;;17.62;46.87;97947.44;239018;180;137965;-61
2024/03/31 00:22:04;;;;;;;28.50;5.20;;;;;;;17.51;47.00;97939.99;239020;180;137332;-61
2024/03/31 00:27:07;;;;;;;29.60;5.60;;;;;;;17.49;46.96;97933.51;239003;180;151706;-61
2024/03/31 00:32:10;;;;;;;23.60;3.90;;;;;;;17.52;46.76;97921.23;239013;180;137043;-59
2024/03/31 00:37:15;;;;;;;34.00;4.80;;;;;;;17.57;46.93;97915.83;239110;180;138434;-60
2024/03/31 00:42:19;;;;;;;30.60;5.50;;;;;;;17.61;46.76;97914.36;239087;180;151159;-61
2024/03/31 00:47:22;;;;;;;26.30;4.90;;;;;;;17.64;46.53;97906.83;239004;180;137965;-59
2024/03/31 00:52:26;;;;;;;22.00;4.50;;;;;;;17.64;46.56;97900.93;239109;180;138244;-59
2024/03/31 00:57:29;;;;;;;26.50;4.50;;;;;;;17.64;46.37;97896.83;238996;180;152263;-61
2024/03/31 01:02:32;;;;;;;26.60;5.00;;;;;;;17.63;46.38;97892.80;239120;180;137499;-60
2024/03/31 01:07:36;;;;;;;27.40;4.30;;;;;;;17.61;46.44;97892.66;239068;180;137938;-61
2024/03/31 01:12:39;;;;;;;28.30;4.80;;;;;;;17.56;46.91;97890.47;239025;180;151881;-59
2024/03/31 01:17:44;;;;;;;;;;;;;;;17.48;47.20;97890.30;239075;173;138221;-60
2024/03/31 01:22:47;;;;;;;25.40;5.00;;;;;;;17.37;47.48;97890.21;239176;179;136547;-60
2024/03/31 01:27:50;;;;;;;25.80;6.00;;;;;;;17.25;47.83;97894.04;239058;180;152026;-61
2024/03/31 01:32:55;;;;;;;22.70;4.70;;;;;;;17.13;48.24;97896.76;239020;180;137072;-60
2024/03/31 01:37:58;;;;;;;34.60;5.80;;;;;;;17.01;48.68;97889.25;239052;180;138452;-61
2024/03/31 01:43:01;;;;;;;25.90;5.10;;;;;;;16.93;48.70;97882.06;238809;180;151903;-61
2024/03/31 01:48:05;;;;;;;23.60;5.40;;;;;;;16.85;48.93;97881.08;239062;180;139272;-60
2024/03/31 01:53:08;;;;;;;28.20;4.70;;;;;;;16.76;49.34;97879.18;238971;180;138579;-59
2024/03/31 01:58:11;;;;;;;25.70;4.80;;;;;;;16.66;49.73;97876.48;239131;180;151339;-60
2024/03/31 02:03:14;;;;;;;27.90;5.10;;;;;;;16.56;50.26;97870.69;239143;180;137414;-61
2024/03/31 02:08:17;;;;;;;24.90;4.80;;;;;;;16.46;50.61;97862.13;239011;180;137019;-61
2024/03/31 02:13:20;;;;;;;27.30;5.00;;;;;;;16.34;51.01;97859.95;239085;180;151451;-60
2024/03/31 02:18:23;;;;;;;32.30;5.40;;;;;;;16.22;51.26;97858.75;239049;180;138111;-61
2024/03/31 02:23:26;;;;;;;27.20;5.10;;;;;;;16.12;51.55;97863.13;239026;179;137639;-61
2024/03/31 02:28:31;;;;;;;23.10;4.50;;;;;;;16.09;51.46;97862.02;239065;180;153999;-61
2024/03/31 02:33:34;;;;;;;25.80;4.60;;;;;;;16.06;51.67;97861.61;239014;180;137638;-61
2024/03/31 02:38:37;;;;;;;20.90;4.30;;;;;;;16.02;52.16;97860.99;239016;180;138552;-60
2024/03/31 02:43:40;;;;;;;21.90;4.40;;;;;;;15.95;52.50;97858.63;239088;180;151205;-60
2024/03/31 02:48:43;;;;;;;24.50;4.30;;;;;;;15.90;52.60;97857.73;239066;180;137668;-60
2024/03/31 02:53:46;;;;;;;23.10;4.40;;;;;;;15.85;52.74;97851.29;239013;180;137434;-59
2024/03/31 02:58:50;;;;;;;26.00;5.10;;;;;;;15.80;52.97;97853.04;239064;180;152566;-58
2024/03/31 03:03:53;;;;;;;23.40;5.20;;;;;;;15.73;52.96;97852.34;238795;180;138740;-59
2024/03/31 03:08:56;;;;;;;18.70;4.20;;;;;;;15.67;53.23;97844.49;238995;180;137849;-59
2024/03/31 03:13:59;;;;;;;20.90;4.70;;;;;;;15.70;53.18;97838.32;238966;180;151228;-60
2024/03/31 03:19:04;;;;;;;26.10;4.80;;;;;;;15.79;52.89;97837.26;239117;180;137804;-60
2024/03/31 03:24:07;;;;;;;22.40;3.60;;;;;;;15.92;52.35;97840.77;239121;180;138335;-61
2024/03/31 03:29:10;;;;;;;20.40;3.70;;;;;;;16.01;52.07;97833.38;239106;180;151132;-59
2024/03/31 03:34:14;;;;;;;17.50;4.00;;;;;;;16.12;51.38;97826.09;239042;180;136940;-59
2024/03/31 03:39:17;;;;;;;18.60;3.40;;;;;;;16.25;50.76;97821.33;238987;180;137024;-60
2024/03/31 03:44:21;;;;;;;17.40;2.90;;;;;;;16.42;50.03;97816.14;239144;180;152688;-59
2024/03/31 03:49:24;;;;;;;17.60;3.70;;;;;;;16.59;49.49;97819.20;239010;180;137364;-60
2024/03/31 03:54:27;;;;;;;13.30;3.30;;;;;;;16.71;48.89;97820.04;239091;180;138752;-60
2024/03/31 03:59:30;;;;;;;16.90;3.20;;;;;;;16.83;48.45;97819.49;239030;180;151576;-61
2024/03/31 04:04:34;;;;;;;16.60;3.20;;;;;;;16.91;48.26;97829.55;239007;180;137827;-58
2024/03/31 04:09:37;;;;;;;17.60;3.00;;;;;;;16.96;48.18;97831.35;238990;180;137014;-60
2024/03/31 04:14:40;;;;;;;16.40;3.10;;;;;;;17.00;47.92;97836.56;238987;180;151265;-60
2024/03/31 04:19:43;;;;;;;16.50;3.00;;;;;;;17.02;47.60;97835.80;239010;180;137854;-61
2024/03/31 04:24:46;;;;;;;13.00;2.90;;;;;;;17.02;47.62;97841.23;239156;180;137618;-61
2024/03/31 04:29:49;;;;;;;17.10;3.00;;;;;;;17.06;47.67;97837.72;238893;180;151304;-61
2024/03/31 04:34:52;;;;;;;18.60;3.00;;;;;;;17.07;47.81;97841.80;239034;180;137717;-60
2024/03/31 04:39:55;;;;;;;19.10;3.10;;;;;;;17.07;48.17;97840.56;237906;180;137169;-59
2024/03/31 04:44:58;;;;;;;25.70;3.10;;;;;;;17.02;48.46;97836.77;238836;181;151130;-60
2024/03/31 04:50:03;;;;;;;14.40;3.00;;;;;;;16.99;48.56;97836.23;238934;180;137728;-61
2024/03/31 04:55:06;;;;;;;15.80;3.60;;;;;;;16.97;48.51;97842.02;239028;181;137248;-62
2024/03/31 05:00:12;;;;;;;13.50;2.90;;;;;;;16.91;48.57;97845.01;239017;176;151231;-62
2024/03/31 05:05:17;;;;;;;16.00;2.90;;;;;;;16.80;49.13;97838.10;238951;180;137506;-61
2024/03/31 05:10:20;;;;;;;14.90;3.10;;;;;;;16.73;49.35;97833.95;239014;180;137577;-60
2024/03/31 05:15:23;;;;;;;14.40;2.30;;;;;;;16.79;48.71;97838.52;238914;181;151341;-61
2024/03/31 05:20:26;;;;;;;19.00;2.80;;;;;;;16.85;48.88;97845.33;239054;180;137153;-61
2024/03/31 05:25:34;;;;;;;345.60;274.70;;;;;;;16.86;48.92;97853.13;239064;180;138010;-61
2024/03/31 05:30:37;;;;;;;60.40;36.80;;;;;;;16.97;48.65;97857.81;238752;180;152878;-60
2024/03/31 05:35:41;;;;;;;13.50;3.40;;;;;;;17.05;48.96;97860.46;239061;180;137281;-61
2024/03/31 05:40:44;;;;;;;85.50;63.60;;;;;;;17.11;49.00;97856.67;238698;180;137679;-61
2024/03/31 05:45:48;;;;;;;12.00;4.60;;;;;;;17.16;48.96;97857.19;239026;180;151755;-61
2024/03/31 05:50:52;;;;;;;18.30;2.70;;;;;;;17.19;49.62;97853.87;238906;180;136815;-61
2024/03/31 05:55:55;;;;;;;16.60;2.80;;;;;;;17.16;49.88;97840.18;238857;180;137780;-62
2024/03/31 06:01:00;;;;;;;20.60;3.40;;;;;;;17.19;50.14;97845.39;238917;180;152507;-61
2024/03/31 06:06:04;;;;;;;287.90;222.00;;;;;;;17.25;50.76;97845.61;238975;176;138110;-61
2024/03/31 06:11:08;;;;;;;22.40;6.90;;;;;;;17.33;51.22;97844.39;238955;180;139163;-62
2024/03/31 06:16:13;;;;;;;16.70;3.60;;;;;;;17.41;51.53;97844.27;238968;180;151964;-62
2024/03/31 06:21:16;;;;;;;;;;;;;;;17.50;51.52;97849.58;238939;180;137515;-62
2024/03/31 06:26:20;;;;;;;13.30;3.10;;;;;;;17.57;51.09;97853.21;239052;180;135236;-62
2024/03/31 06:31:23;;;;;;;12.40;3.10;;;;;;;17.66;50.40;97855.15;239212;180;151384;-61
2024/03/31 06:36:27;;;;;;;15.10;3.10;;;;;;;17.78;50.69;97847.73;238903;180;137316;-61
2024/03/31 06:41:30;;;;;;;12.80;2.90;;;;;;;17.91;49.95;97845.02;238741;180;140448;-57
2024/03/31 06:46:34;;;;;;;17.70;8.90;;;;;;;18.07;49.95;97846.67;239038;176;152249;-60
2024/03/31 06:51:37;;;;;;;13.20;3.10;;;;;;;18.41;49.56;97844.63;239001;180;143815;-60
2024/03/31 06:56:40;;;;;;;18.80;3.00;;;;;;;18.51;48.77;97848.90;239118;180;137714;-61
2024/03/31 07:01:43;;;;;;;10.50;3.10;;;;;;;18.61;48.65;97838.48;238953;180;151355;-59
2024/03/31 07:06:49;;;;;;;16.00;2.50;;;;;;;18.76;48.60;97819.80;238980;176;137175;-60
2024/03/31 07:11:52;;;;;;;34.10;11.20;;;;;;;18.85;48.99;97814.59;238866;180;140580;-61
2024/03/31 07:16:58;;;;;;;12.70;3.50;;;;;;;18.96;48.76;97814.11;238835;180;153273;-62
2024/03/31 07:22:02;;;;;;;10.90;3.20;;;;;;;19.11;48.22;97819.52;239038;180;137004;-59
2024/03/31 07:27:05;;;;;;;13.40;2.50;;;;;;;19.25;47.27;97823.56;239106;180;139596;-61
2024/03/31 07:32:08;;;;;;;9.00;2.50;;;;;;;19.35;46.88;97825.98;238760;180;152797;-61
2024/03/31 07:37:11;;;;;;;97.70;78.10;;;;;;;19.44;46.64;97829.87;239050;180;137284;-59
2024/03/31 07:42:14;;;;;;;45.10;26.00;;;;;;;19.53;47.83;97828.23;239176;179;137632;-61
2024/03/31 07:47:16;;;;;;;13.20;3.80;;;;;;;19.57;49.02;97823.54;238893;180;153199;-61
2024/03/31 07:52:19;;;;;;;16.00;5.00;;;;;;;19.64;49.21;97825.88;238944;180;136700;-61
2024/03/31 07:57:22;;;;;;;5.70;2.60;;;;;;;19.75;49.39;97823.15;238886;177;136797;-59
2024/03/31 08:02:25;;;;;;;8.10;2.40;;;;;;;19.89;48.64;97814.60;239074;180;151808;-58
2024/03/31 08:07:29;;;;;;;13.60;2.60;;;;;;;20.06;46.57;97810.61;239031;180;137511;-58
2024/03/31 08:12:32;;;;;;;10.30;2.60;;;;;;;20.25;45.28;97811.10;239059;180;137953;-60
2024/03/31 08:17:35;;;;;;;13.70;2.70;;;;;;;20.40;44.31;97812.04;239055;180;151146;-60
2024/03/31 08:22:38;;;;;;;9.50;2.50;;;;;;;20.58;43.13;97813.43;239106;180;136936;-60
2024/03/31 08:27:41;;;;;;;9.80;2.50;;;;;;;20.76;41.89;97814.98;239177;180;137260;-61
2024/03/31 08:32:45;;;;;;;15.00;2.60;;;;;;;20.94;41.07;97814.60;239052;178;151626;-61
2024/03/31 08:37:51;;;;;;;13.70;2.70;;;;;;;21.06;38.47;97792.11;239165;180;137884;-59
2024/03/31 08:43:00;;;;;;;21.40;2.80;;;;;;;21.18;37.36;97780.72;239038;180;137604;-60
2024/03/31 08:48:05;;;;;;;15.80;3.10;;;;;;;21.25;36.36;97771.88;238973;180;152786;-59
2024/03/31 08:53:08;;;;;;;16.00;2.90;;;;;;;21.33;36.04;97770.39;239128;180;138150;-60
2024/03/31 08:58:11;;;;;;;17.10;3.00;;;;;;;21.45;36.15;97765.02;239125;180;137086;-60
2024/03/31 09:03:14;;;;;;;17.00;3.70;;;;;;;21.56;36.76;97755.85;238952;180;151329;-59
2024/03/31 09:08:17;;;;;;;11.20;2.70;;;;;;;21.64;37.11;97753.33;239024;180;138401;-60
2024/03/31 09:13:40;;;;;;;10.10;2.60;;;;;;;21.71;37.21;97738.55;239022;177;137095;-59
2024/03/31 09:18:46;;;;;;;9.80;2.40;;;;;;;21.76;37.26;97730.91;239001;180;151730;-59
2024/03/31 09:23:49;;;;;;;7.10;2.50;;;;;;;21.78;39.18;97720.75;239060;180;137904;-60
2024/03/31 09:28:52;;;;;;;8.00;2.70;;;;;;;21.80;40.14;97713.94;239100;180;137464;-60
2024/03/31 09:33:55;;;;;;;13.80;2.50;;;;;;;21.84;39.84;97711.70;239124;179;151766;-60
2024/03/31 09:38:58;;;;;;;8.50;3.50;;;;;;;21.89;41.13;97701.94;239007;179;138013;-60
2024/03/31 09:44:01;;;;;;;7.50;2.40;;;;;;;21.90;42.10;97703.38;238403;176;137922;-61
2024/03/31 09:49:10;;;;;;;12.50;3.20;;;;;;;21.95;42.69;97695.19;238928;180;151146;-61
2024/03/31 09:54:23;;;;;;;8.50;2.20;;;;;;;21.94;42.56;97690.19;239086;177;137485;-60
2024/03/31 09:59:28;;;;;;;8.80;2.40;;;;;;;21.90;42.69;97679.53;239030;180;136768;-61
2024/03/31 10:04:35;;;;;;;;;;;;;;;21.96;42.79;97699.23;239008;180;152289;-62
2024/03/31 10:09:39;;;;;;;10.20;2.30;;;;;;;22.03;42.54;97686.44;239007;180;135983;-61
2024/03/31 10:14:46;;;;;;;7.50;2.60;;;;;;;22.11;42.16;97694.25;238955;180;138210;-61
2024/03/31 10:19:51;;;;;;;9.60;2.60;;;;;;;22.25;41.64;97701.81;239081;169;152533;-68
2024/03/31 10:24:56;;;;;;;161.70;143.30;;;;;;;22.46;41.01;97705.55;239104;173;137437;-62
2024/03/31 10:30:00;;;;;;;25.80;17.30;;;;;;;22.72;40.44;97701.38;239054;180;142162;-60
2024/03/31 10:35:05;;;;;;;45.00;13.60;;;;;;;23.02;39.00;97689.59;239070;180;151137;-60
2024/03/31 10:40:12;;;;;;;34.70;8.90;;;;;;;23.26;35.47;97677.20;238763;180;140308;-57
2024/03/31 10:45:15;;;;;;;44.90;7.20;;;;;;;23.60;32.06;97680.56;239081;179;138308;-63
2024/03/31 10:50:25;;;;;;;49.40;7.20;;;;;;;23.88;29.99;97678.65;238926;180;152361;-57
2024/03/31 10:55:28;;;;;;;40.30;5.90;;;;;;;24.21;29.14;97683.50;239019;180;136990;-54
2024/03/31 11:00:35;;;;;;;51.40;7.50;;;;;;;24.47;28.75;97674.52;239075;180;138707;-58
2024/03/31 11:05:39;;;;;;;36.50;5.90;;;;;;;24.66;27.92;97666.25;239068;180;152867;-52
2024/03/31 11:10:43;;;;;;;44.20;6.40;;;;;;;24.87;28.33;97664.11;238823;180;138384;-56
2024/03/31 11:15:46;;;;;;;41.00;6.70;;;;;;;25.02;28.25;97658.64;239117;180;137695;-60
2024/03/31 11:20:49;;;;;;;42.90;6.30;;;;;;;25.17;27.56;97647.12;239154;180;151113;-59
2024/03/31 11:25:52;;;;;;;76.40;13.60;;;;;;;25.26;25.81;97638.95;239038;180;138184;-56
2024/03/31 11:30:57;;;;;;;136.90;35.50;;;;;;;25.26;23.35;97618.92;239064;180;137470;-57
2024/03/31 11:36:01;;;;;;;94.70;12.50;;;;;;;25.33;22.86;97596.24;239044;180;151226;-63
2024/03/31 11:41:05;;;;;;;78.30;11.00;;;;;;;25.43;22.51;97590.42;239048;180;137584;-63
2024/03/31 11:46:09;;;;;;;89.50;12.10;;;;;;;25.60;22.76;97589.58;239128;180;137750;-71
2024/03/31 11:51:12;;;;;;;163.20;77.60;;;;;;;25.81;22.10;97599.20;239077;180;151734;-63
2024/03/31 11:56:15;;;;;;;72.30;11.40;;;;;;;25.94;22.54;97613.81;239002;180;138458;-64
2024/03/31 12:01:19;;;;;;;86.50;13.50;;;;;;;26.15;22.91;97626.27;239044;180;140736;-66
2024/03/31 12:06:24;;;;;;;73.20;11.80;;;;;;;26.28;21.91;97609.09;239010;180;151154;-67
2024/03/31 12:11:27;;;;;;;74.00;17.70;;;;;;;26.32;22.60;97598.46;239026;180;137298;-59
2024/03/31 12:16:31;;;;;;;52.50;9.30;;;;;;;26.41;22.18;97580.47;239046;180;137841;-60
2024/03/31 12:21:34;;;;;;;65.70;11.60;;;;;;;26.41;21.88;97582.22;238921;180;154015;-62
2024/03/31 12:26:37;;;;;;;76.90;11.10;;;;;;;26.51;21.63;97592.02;238963;180;141545;-60
2024/03/31 12:31:41;;;;;;;69.10;10.30;;;;;;;26.51;21.23;97591.92;239092;180;137934;-61
2024/03/31 12:36:44;;;;;;;73.40;10.90;;;;;;;26.42;21.49;97591.45;239136;180;153856;-60
2024/03/31 12:41:47;;;;;;;83.80;11.80;;;;;;;26.28;21.39;97593.61;239031;180;139940;-64
2024/03/31 12:46:50;;;;;;;71.20;10.10;;;;;;;26.17;21.25;97585.46;238955;177;138993;-60
2024/03/31 12:51:54;;;;;;;70.40;12.20;;;;;;;26.13;21.44;97577.76;238973;180;153533;-59
2024/03/31 12:56:57;;;;;;;79.90;11.50;;;;;;;26.07;21.18;97575.52;239029;180;137878;-60
2024/03/31 13:02:00;;;;;;;84.60;11.70;;;;;;;26.00;21.38;97578.77;239135;180;138801;-60
2024/03/31 13:07:07;;;;;;;79.20;10.00;;;;;;;25.90;21.25;97591.13;239074;179;154101;-60
2024/03/31 13:12:10;;;;;;;74.20;11.20;;;;;;;25.81;21.44;97596.48;239011;180;138322;-61
2024/03/31 13:17:13;;;;;;;83.50;11.80;;;;;;;25.70;21.31;97599.72;238988;180;138115;-60
2024/03/31 13:22:16;;;;;;;71.40;11.50;;;;;;;25.63;21.77;97600.27;238963;180;153509;-61
2024/03/31 13:27:19;;;;;;;79.30;11.30;;;;;;;25.62;21.71;97601.45;238789;180;138967;-60
2024/03/31 13:32:22;;;;;;;81.40;11.10;;;;;;;25.59;21.26;97600.69;239034;180;137515;-61
2024/03/31 13:37:25;;;;;;;90.90;12.30;;;;;;;25.55;21.88;97600.89;239007;180;153983;-61
2024/03/31 13:42:28;;;;;;;82.00;10.60;;;;;;;25.71;22.08;97593.27;238919;180;138604;-61
2024/03/31 13:47:31;;;;;;;79.70;9.80;;;;;;;25.84;21.39;97589.46;238859;180;143102;-62
2024/03/31 13:52:34;;;;;;;95.30;11.60;;;;;;;25.82;21.70;97592.58;239012;180;153027;-61
2024/03/31 13:57:37;;;;;;;76.20;12.10;;;;;;;25.67;21.96;97591.95;239019;180;139335;-61
2024/03/31 14:02:40;;;;;;;74.30;10.40;;;;;;;25.46;21.90;97597.39;239005;180;137146;-63
2024/03/31 14:07:43;;;;;;;87.90;11.40;;;;;;;25.22;22.31;97599.23;239058;180;154254;-60
2024/03/31 14:12:46;;;;;;;90.10;12.20;;;;;;;25.09;22.58;97594.52;239091;180;138636;-61
2024/03/31 14:17:51;;;;;;;69.60;10.40;;;;;;;25.02;22.62;97586.77;239124;180;138079;-60
2024/03/31 14:22:54;;;;;;;75.40;11.50;;;;;;;24.95;22.58;97589.14;239003;180;153721;-61
2024/03/31 14:27:58;;;;;;;98.40;13.00;;;;;;;24.89;23.17;97580.73;239093;180;138351;-61
2024/03/31 14:33:03;;;;;;;73.30;11.20;;;;;;;24.81;23.25;97583.52;239062;180;142456;-61
2024/03/31 14:38:06;;;;;;;84.90;10.60;;;;;;;24.73;23.51;97576.80;239060;180;153588;-61
2024/03/31 14:43:09;;;;;;;75.10;12.10;;;;;;;24.65;23.81;97573.02;239005;180;137099;-61
2024/03/31 14:48:13;;;;;;;78.70;11.70;;;;;;;24.58;23.96;97577.04;239120;180;137992;-60
2024/03/31 14:53:16;;;;;;;62.90;11.00;;;;;;;24.50;24.10;97572.70;238726;180;153011;-61
2024/03/31 14:58:18;;;;;;;78.10;10.00;;;;;;;24.42;24.26;97571.72;239047;180;137873;-61
2024/03/31 15:03:22;;;;;;;61.90;9.70;;;;;;;24.33;24.13;97569.69;239078;177;137489;-60
2024/03/31 15:08:25;;;;;;;65.70;10.30;;;;;;;24.23;24.42;97573.69;239027;176;153297;-60
2024/03/31 15:13:28;;;;;;;81.40;10.20;;;;;;;24.15;24.55;97575.95;239114;180;138992;-60
2024/03/31 15:18:31;;;;;;;62.60;9.50;;;;;;;24.08;25.14;97581.09;239083;180;138464;-59
2024/03/31 15:23:34;;;;;;;67.20;8.90;;;;;;;24.03;25.29;97582.37;239051;180;153231;-58
2024/03/31 15:28:37;;;;;;;60.90;8.60;;;;;;;23.94;25.19;97577.61;238615;180;142520;-60
2024/03/31 15:33:40;;;;;;;56.50;8.10;;;;;;;23.84;25.29;97578.31;239063;180;137546;-61
2024/03/31 15:38:43;;;;;;;56.30;8.00;;;;;;;23.74;25.43;97578.31;239095;180;153878;-59
2024/03/31 15:43:46;;;;;;;64.20;12.20;;;;;;;23.71;25.64;97579.92;239030;180;138245;-56
2024/03/31 15:48:49;;;;;;;52.50;8.20;;;;;;;23.71;25.59;97576.20;239064;180;138315;-60
2024/03/31 15:53:56;;;;;;;55.10;9.70;;;;;;;23.68;25.67;97580.27;238951;180;153355;-58
2024/03/31 15:59:00;;;;;;;53.60;8.40;;;;;;;23.61;25.55;97580.38;239097;180;137868;-60
2024/03/31 16:04:03;;;;;;;59.90;7.90;;;;;;;23.58;25.50;97583.19;239033;180;138181;-59
2024/03/31 16:09:06;;;;;;;53.30;7.10;;;;;;;23.52;25.67;97585.30;238998;179;154537;-58
2024/03/31 16:14:09;;;;;;;59.00;8.30;;;;;;;23.46;25.75;97588.91;238958;180;137101;-57
2024/03/31 16:19:12;;;;;;;50.90;6.80;;;;;;;23.44;25.77;97589.84;239061;180;137906;-59
2024/03/31 16:24:16;;;;;;;69.20;9.20;;;;;;;23.43;25.84;97588.77;238965;180;153383;-58
2024/03/31 16:29:19;;;;;;;47.10;8.00;;;;;;;23.39;25.66;97587.80;238864;180;141191;-59
2024/03/31 16:34:22;;;;;;;55.80;7.40;;;;;;;23.32;25.56;97585.23;239082;180;138036;-58
2024/03/31 16:39:25;;;;;;;64.40;7.70;;;;;;;23.28;25.67;97588.40;238975;176;153813;-60
2024/03/31 16:44:28;;;;;;;55.90;6.90;;;;;;;23.21;25.43;97593.73;239053;180;137761;-59
2024/03/31 16:49:31;;;;;;;49.80;7.70;;;;;;;23.16;25.44;97591.23;239107;180;138285;-60
2024/03/31 16:54:34;;;;;;;55.40;7.70;;;;;;;23.11;25.40;97588.39;239084;180;153899;-58
2024/03/31 16:59:37;;;;;;;96.70;43.10;;;;;;;23.11;25.34;97582.97;238942;180;137614;-64
2024/03/31 17:04:40;;;;;;;56.40;7.60;;;;;;;23.12;25.05;97577.36;239061;180;137194;-59
2024/03/31 17:09:43;;;;;;;49.90;7.10;;;;;;;23.09;25.14;97573.70;239088;180;153460;-60
2024/03/31 17:14:46;;;;;;;45.00;7.90;;;;;;;23.05;25.00;97582.06;238854;180;138916;-61
2024/03/31 17:19:49;;;;;;;49.00;7.00;;;;;;;22.99;25.12;97583.39;239025;180;143486;-59
2024/03/31 17:24:58;;;;;;;53.70;7.50;;;;;;;22.95;25.30;97589.61;239050;172;154383;-60
2024/03/31 17:30:02;;;;;;;41.40;6.90;;;;;;;22.91;25.29;97595.68;238866;180;137463;-59
2024/03/31 17:35:05;;;;;;;38.30;6.60;;;;;;;22.87;25.27;97591.09;238911;180;137297;-59
2024/03/31 17:40:10;;;;;;;42.70;6.80;;;;;;;22.82;25.21;97603.18;238928;180;153654;-59
2024/03/31 17:45:13;;;;;;;45.70;7.10;;;;;;;22.80;25.36;97622.06;239044;180;140716;-59
2024/03/31 17:50:18;;;;;;;42.90;7.00;;;;;;;22.78;25.51;97628.70;238963;180;141634;-59
2024/03/31 17:55:21;;;;;;;39.50;6.70;;;;;;;22.76;25.53;97631.95;238985;180;154223;-64
2024/03/31 18:00:24;;;;;;;42.50;6.30;;;;;;;22.72;25.46;97627.14;238928;177;138214;-56
2024/03/31 18:05:28;;;;;;;39.10;6.60;;;;;;;22.70;25.68;97625.59;238859;180;137926;-59
2024/03/31 18:10:31;;;;;;;44.60;6.50;;;;;;;22.67;25.74;97629.67;238950;180;153786;-57
2024/03/31 18:15:34;;;;;;;48.40;6.80;;;;;;;22.62;25.88;97631.55;238911;180;137605;-58
2024/03/31 18:20:37;;;;;;;41.20;7.00;;;;;;;22.58;25.99;97633.05;238976;178;137167;-55
2024/03/31 18:25:40;;;;;;;52.40;7.70;;;;;;;22.55;26.30;97638.67;239095;180;153389;-58
2024/03/31 18:30:47;;;;;;;37.20;6.00;;;;;;;22.55;26.17;97637.05;239004;180;137243;-58
2024/03/31 18:35:50;;;;;;;45.20;6.40;;;;;;;22.48;26.25;97639.45;239078;180;137863;-58
2024/03/31 18:41:00;;;;;;;48.50;6.80;;;;;;;22.45;26.51;97637.50;239060;180;154166;-59
2024/03/31 18:46:05;;;;;;;36.90;6.00;;;;;;;22.39;26.73;97628.84;239010;180;138086;-58
2024/03/31 18:51:12;;;;;;;37.70;7.70;;;;;;;22.33;26.88;97626.40;239147;180;139301;-56
2024/03/31 18:56:17;;;;;;;41.70;5.80;;;;;;;22.28;27.05;97629.17;239040;180;152948;-57
2024/03/31 19:01:22;;;;;;;37.10;6.10;;;;;;;22.22;27.22;97635.75;239070;180;137661;-58
2024/03/31 19:06:26;;;;;;;44.20;6.80;;;;;;;22.15;27.48;97648.65;239114;176;137842;-56
2024/03/31 19:11:29;;;;;;;39.10;6.70;;;;;;;22.06;27.86;97663.84;239112;180;153652;-56
2024/03/31 19:16:32;;;;;;;30.80;5.70;;;;;;;21.98;28.40;97671.15;238997;176;138381;-58
2024/03/31 19:21:35;;;;;;;90.80;52.20;;;;;;;21.89;29.03;97669.61;239120;180;138067;-57
2024/03/31 19:26:38;;;;;;;38.90;6.30;;;;;;;21.83;29.70;97676.78;238887;180;153247;-57
2024/03/31 19:31:41;;;;;;;29.10;6.20;;;;;;;21.77;29.89;97682.80;239006;180;138104;-56
2024/03/31 19:36:44;;;;;;;34.60;5.80;;;;;;;21.66;30.32;97681.07;239049;180;139009;-57
2024/03/31 19:41:47;;;;;;;36.40;5.40;;;;;;;21.58;30.73;97683.34;239031;180;153153;-57
2024/03/31 19:46:50;;;;;;;31.90;5.80;;;;;;;21.49;31.13;97679.70;238975;180;143010;-57
2024/03/31 19:51:53;;;;;;;38.40;5.30;;;;;;;21.37;31.44;97680.95;239102;180;138028;-56
2024/03/31 19:56:57;;;;;;;30.70;5.50;;;;;;;21.27;31.65;97684.14;239110;177;153321;-55
2024/03/31 20:02:00;;;;;;;34.40;5.90;;;;;;;21.22;31.91;97682.46;239045;177;137980;-56
2024/03/31 20:07:04;;;;;;;27.20;5.70;;;;;;;21.15;32.14;97685.16;239027;179;138594;-57
2024/03/31 20:12:07;;;;;;;32.30;5.40;;;;;;;21.07;32.40;97688.64;239063;180;153149;-53
2024/03/31 20:17:10;;;;;;;29.00;5.30;;;;;;;21.07;32.44;97689.23;238997;180;137265;-56
2024/03/31 20:22:13;;;;;;;29.00;4.90;;;;;;;21.06;32.65;97696.54;239132;180;137241;-57
2024/03/31 20:27:16;;;;;;;33.20;6.10;;;;;;;21.09;32.54;97698.58;238999;177;153431;-57
2024/03/31 20:32:19;;;;;;;33.80;6.70;;;;;;;21.09;32.77;97690.48;239045;177;142533;-56
2024/03/31 20:37:22;;;;;;;38.70;5.80;;;;;;;21.05;32.78;97690.77;238996;180;137983;-57
2024/03/31 20:42:25;;;;;;;35.50;5.80;;;;;;;21.01;32.99;97686.88;239121;180;153964;-57
2024/03/31 20:47:30;;;;;;;36.60;5.80;;;;;;;20.93;33.21;97689.55;238718;180;138617;-56
2024/03/31 20:52:33;;;;;;;44.20;6.50;;;;;;;20.87;33.17;97690.33;238969;180;137676;-56
2024/03/31 20:57:36;;;;;;;39.40;6.80;;;;;;;20.82;33.28;97686.52;239046;180;153823;-58
2024/03/31 21:02:39;;;;;;;32.10;5.80;;;;;;;20.81;33.45;97692.90;239086;180;137157;-57
2024/03/31 21:07:42;;;;;;;36.10;6.40;;;;;;;20.79;33.56;97689.85;239053;180;137998;-57
2024/03/31 21:12:45;;;;;;;28.10;5.60;;;;;;;20.71;33.73;97685.31;239101;180;153566;-58
2024/03/31 21:17:48;;;;;;;37.10;5.80;;;;;;;20.68;33.82;97683.39;239022;176;138788;-58
2024/03/31 21:22:51;;;;;;;36.30;5.30;;;;;;;20.64;33.95;97676.45;239016;180;137474;-57
2024/03/31 21:27:54;;;;;;;29.50;5.40;;;;;;;20.60;34.09;97673.50;238717;176;153512;-56
2024/03/31 21:32:57;;;;;;;28.80;5.80;;;;;;;20.56;34.22;97675.30;239078;180;138481;-56
2024/03/31 21:38:00;;;;;;;40.80;5.50;;;;;;;20.57;34.13;97671.27;239064;180;136884;-56
2024/03/31 21:43:04;;;;;;;32.20;6.50;;;;;;;20.50;34.26;97669.52;239082;180;153965;-56
2024/03/31 21:48:08;;;;;;;32.00;5.30;;;;;;;20.45;34.51;97667.30;239008;180;138080;-57
2024/03/31 21:53:11;;;;;;;38.00;5.20;;;;;;;20.40;34.70;97661.38;238926;180;138765;-55
2024/03/31 21:58:14;;;;;;;36.40;6.00;;;;;;;20.30;34.88;97659.44;238822;180;154191;-57
2024/03/31 22:03:18;;;;;;;37.20;5.90;;;;;;;20.17;35.04;97651.64;238857;178;140533;-57
2024/03/31 22:08:21;;;;;;;42.90;6.70;;;;;;;20.13;35.21;97647.65;238750;180;138588;-58
2024/03/31 22:13:24;;;;;;;34.20;5.90;;;;;;;20.07;35.32;97637.64;238460;180;154090;-56
2024/03/31 22:18:29;;;;;;;41.50;6.10;;;;;;;20.01;35.40;97630.64;239079;180;139777;-54
2024/03/31 22:23:32;;;;;;;35.00;5.40;;;;;;;19.92;35.48;97626.09;239059;180;138165;-57
2024/03/31 22:28:35;;;;;;;43.80;6.50;;;;;;;19.83;35.63;97617.20;239034;180;154349;-56
2024/03/31 22:33:38;;;;;;;37.80;6.10;;;;;;;19.78;35.63;97617.06;238894;180;141023;-56
2024/03/31 22:38:41;;;;;;;45.50;7.20;;;;;;;19.74;35.84;97612.48;238973;180;138925;-56
2024/03/31 22:43:45;;;;;;;41.70;7.00;;;;;;;19.73;35.79;97609.59;239019;173;153573;-57
2024/03/31 22:48:49;;;;;;;46.30;7.10;;;;;;;19.71;36.01;97609.30;239042;180;137062;-54
2024/03/31 22:53:58;;;;;;;40.80;7.30;;;;;;;19.73;36.34;97616.61;238821;180;138597;-55
2024/03/31 22:59:01;;;;;;;40.70;6.00;;;;;;;19.57;37.40;97622.41;238936;177;155163;-57
2024/03/31 23:04:04;;;;;;;37.00;5.90;;;;;;;19.33;37.84;97634.16;239082;180;139068;-54
2024/03/31 23:09:07;;;;;;;42.60;6.80;;;;;;;19.11;38.60;97642.74;238928;180;139437;-55
2024/03/31 23:14:10;;;;;;;34.60;6.00;;;;;;;18.90;38.98;97629.42;239067;180;153195;-56